Time;durP1;ratioP1;P1;durP2;ratioP2;P2;SDS_P1;SDS_P2;PMS_P1;PMS_P2;Temp;Humidity;BMP_temperature;BMP_pressure;BME280_temperature;BME280_humidity;BME280_pressure;Samples;Min_cycle;Max_cycle;Signal;HPM_P1;HPM_P2
2021/07/16 00:08:30;;;;;;;16.10;10.45;;;20.50;64.50;;;;;;4960726;28;20036;-70
2021/07/16 00:10:55;;;;;;;19.27;11.32;;;20.50;64.20;;;;;;4973899;28;20066;-70
2021/07/16 00:13:21;;;;;;;17.75;9.68;;;20.50;64.10;;;;;;4958409;29;20030;-70
2021/07/16 00:15:47;;;;;;;16.08;9.88;;;20.50;63.60;;;;;;4971269;28;20046;-70
2021/07/16 00:18:13;;;;;;;17.33;9.60;;;20.40;63.40;;;;;;4959212;28;20537;-70
2021/07/16 00:20:39;;;;;;;15.55;9.32;;;20.40;63.60;;;;;;4959901;28;20080;-70
2021/07/16 00:23:04;;;;;;;17.40;9.73;;;20.40;63.20;;;;;;4959441;28;20149;-70
2021/07/16 00:25:30;;;;;;;17.90;11.07;;;20.30;64.80;;;;;;4958970;28;20437;-70
2021/07/16 00:27:56;;;;;;;18.10;11.18;;;20.40;66.40;;;;;;4960214;28;20031;-70
2021/07/16 00:30:22;;;;;;;18.98;10.60;;;20.30;65.00;;;;;;4958905;28;20031;-70
2021/07/16 00:32:48;;;;;;;18.35;10.75;;;20.30;64.30;;;;;;4958882;28;20038;-70
2021/07/16 00:35:14;;;;;;;15.30;9.27;;;20.20;64.50;;;;;;4972067;28;20434;-70
2021/07/16 00:37:40;;;;;;;20.08;11.73;;;20.20;65.00;;;;;;4958471;28;20019;-70
2021/07/16 00:40:09;;;;;;;20.17;10.93;;;20.20;65.60;;;;;;4958867;28;20020;-70
2021/07/16 00:42:35;;;;;;;19.70;10.55;;;20.20;65.20;;;;;;4959568;28;20039;-70
2021/07/16 00:45:00;;;;;;;17.27;9.18;;;20.20;64.60;;;;;;4958829;28;20031;-70
2021/07/16 00:47:26;;;;;;;17.45;11.77;;;20.20;64.30;;;;;;4963154;28;20031;-70
2021/07/16 00:49:52;;;;;;;23.35;10.90;;;20.10;66.20;;;;;;4959731;28;20028;-70
2021/07/16 00:52:18;;;;;;;16.98;9.80;;;20.10;65.50;;;;;;4974607;28;20062;-70
2021/07/16 00:54:44;;;;;;;23.30;12.05;;;20.10;64.90;;;;;;4967828;28;20042;-70
2021/07/16 00:57:10;;;;;;;18.50;10.00;;;20.10;65.00;;;;;;4959698;28;20023;-70
2021/07/16 00:59:37;;;;;;;23.83;11.70;;;20.00;65.40;;;;;;4958846;28;20038;-70
2021/07/16 01:02:03;;;;;;;17.85;11.35;;;20.10;66.70;;;;;;4971104;28;20043;-70
2021/07/16 01:04:28;;;;;;;22.60;10.27;;;20.00;65.90;;;;;;4968185;28;20118;-70
2021/07/16 01:06:54;;;;;;;18.65;10.18;;;20.00;65.80;;;;;;4958332;28;20111;-70
2021/07/16 01:09:20;;;;;;;19.15;11.30;;;20.00;65.60;;;;;;4959142;28;20490;-70
2021/07/16 01:11:46;;;;;;;20.35;10.82;;;20.00;65.60;;;;;;4971457;28;20481;-70
2021/07/16 01:14:13;;;;;;;15.82;9.82;;;20.00;65.70;;;;;;4973044;28;20035;-70
2021/07/16 01:16:39;;;;;;;17.85;9.50;;;20.00;65.70;;;;;;4978737;28;20022;-70
2021/07/16 01:19:07;;;;;;;17.55;9.57;;;20.00;65.80;;;;;;4976674;28;20055;-69
2021/07/16 01:21:35;;;;;;;22.77;11.10;;;20.00;65.40;;;;;;4977676;28;20019;-70
2021/07/16 01:24:03;;;;;;;20.30;11.23;;;20.00;65.50;;;;;;4976204;28;20541;-70
2021/07/16 01:26:30;;;;;;;19.90;11.48;;;20.00;65.50;;;;;;4959545;28;20131;-70
2021/07/16 01:28:57;;;;;;;18.30;11.35;;;19.90;66.10;;;;;;4958553;28;20528;-70
2021/07/16 01:31:23;;;;;;;19.05;11.15;;;19.90;67.30;;;;;;4957280;28;20019;-70
2021/07/16 01:33:49;;;;;;;17.02;10.27;;;19.90;66.30;;;;;;4958861;28;20440;-70
2021/07/16 01:36:15;;;;;;;19.65;10.25;;;19.90;66.00;;;;;;4958304;28;20016;-70
2021/07/16 01:38:41;;;;;;;19.70;12.00;;;19.90;66.10;;;;;;4957601;28;20397;-70
2021/07/16 01:41:07;;;;;;;19.30;10.85;;;19.90;66.40;;;;;;4958873;28;20463;-70
2021/07/16 01:43:32;;;;;;;16.52;9.52;;;19.90;66.60;;;;;;4961663;28;20114;-70
2021/07/16 01:45:58;;;;;;;18.35;11.85;;;19.90;66.00;;;;;;4972199;28;20025;-70
2021/07/16 01:48:24;;;;;;;22.35;10.63;;;19.90;66.10;;;;;;4977197;28;20047;-70
2021/07/16 01:50:50;;;;;;;20.52;12.40;;;19.90;65.90;;;;;;4958053;28;20023;-70
2021/07/16 01:53:20;;;;;;;24.95;11.80;;;19.90;66.20;;;;;;4957509;28;20085;-70
2021/07/16 01:55:47;;;;;;;20.40;11.57;;;19.90;66.50;;;;;;4963700;28;20082;-70
2021/07/16 01:58:14;;;;;;;20.67;11.85;;;19.80;67.00;;;;;;4970718;28;20045;-70
2021/07/16 02:00:48;;;;;;;18.58;11.70;;;19.90;66.40;;;;;;4957983;28;20502;-70
2021/07/16 02:03:16;;;;;;;20.17;11.05;;;19.80;66.60;;;;;;4958512;28;20038;-70
2021/07/16 02:05:44;;;;;;;17.88;11.20;;;19.80;66.30;;;;;;4961871;28;20467;-70
2021/07/16 02:08:15;;;;;;;19.73;11.52;;;19.80;66.40;;;;;;4961137;28;20047;-70
2021/07/16 02:10:52;;;;;;;20.17;10.57;;;19.80;66.60;;;;;;4969847;28;20053;-70
2021/07/16 02:13:18;;;;;;;20.38;11.45;;;19.80;66.30;;;;;;4962918;28;20110;-70
2021/07/16 02:15:46;;;;;;;20.63;11.57;;;19.80;65.60;;;;;;4967478;28;20062;-70
2021/07/16 02:18:13;;;;;;;22.60;11.55;;;19.70;65.30;;;;;;4963118;28;20068;-70
2021/07/16 02:20:40;;;;;;;21.83;10.80;;;19.70;65.20;;;;;;4961691;28;20030;-70
2021/07/16 02:23:12;;;;;;;18.00;10.40;;;19.60;64.90;;;;;;4962313;28;20031;-69
2021/07/16 02:25:38;;;;;;;21.42;13.45;;;19.60;64.70;;;;;;4961843;28;20385;-69
2021/07/16 02:28:13;;;;;;;25.42;14.25;;;19.60;67.60;;;;;;4962456;28;20512;-70
2021/07/16 02:30:39;;;;;;;22.38;12.48;;;19.60;67.60;;;;;;4971567;28;20167;-70
2021/07/16 02:33:04;;;;;;;19.88;11.85;;;19.50;66.30;;;;;;4974541;28;21127;-70
2021/07/16 02:35:31;;;;;;;20.95;12.85;;;19.40;66.50;;;;;;4971801;28;20118;-70
2021/07/16 02:37:59;;;;;;;22.15;12.75;;;19.40;66.70;;;;;;4972476;28;20075;-70
2021/07/16 02:40:25;;;;;;;25.23;12.60;;;19.30;66.50;;;;;;4961086;28;20544;-70
2021/07/16 02:42:51;;;;;;;26.90;14.77;;;19.30;65.80;;;;;;4961174;28;20441;-70
2021/07/16 02:45:20;;;;;;;29.63;16.05;;;19.20;67.30;;;;;;4964060;28;20031;-70
2021/07/16 02:47:47;;;;;;;24.33;14.18;;;19.20;70.20;;;;;;4990714;28;20057;-70
2021/07/16 02:50:15;;;;;;;27.45;14.75;;;19.10;68.00;;;;;;4964452;28;20058;-70
2021/07/16 02:52:42;;;;;;;24.48;13.13;;;19.10;67.20;;;;;;4960718;28;20031;-70
2021/07/16 02:55:09;;;;;;;29.27;14.48;;;19.00;67.50;;;;;;4960675;28;20031;-70
2021/07/16 02:57:35;;;;;;;21.80;12.45;;;19.00;67.20;;;;;;4972027;28;20061;-70
2021/07/16 03:00:01;;;;;;;27.30;13.13;;;19.00;66.70;;;;;;4963463;28;20019;-71
2021/07/16 03:02:28;;;;;;;25.38;13.45;;;18.90;66.70;;;;;;4960881;28;20035;-70
2021/07/16 03:04:55;;;;;;;29.90;14.93;;;18.90;66.70;;;;;;4960596;28;20019;-70
2021/07/16 03:07:22;;;;;;;23.77;13.02;;;18.90;67.10;;;;;;4960044;28;20023;-70
2021/07/16 03:09:47;;;;;;;25.33;13.73;;;18.80;66.50;;;;;;4962251;28;20059;-70
2021/07/16 03:12:13;;;;;;;26.80;14.63;;;18.80;66.20;;;;;;4971743;28;20046;-70
2021/07/16 03:14:39;;;;;;;25.80;15.10;;;18.80;67.10;;;;;;4960573;28;20056;-70
2021/07/16 03:17:06;;;;;;;32.80;14.80;;;18.80;67.60;;;;;;4972571;28;20027;-70
2021/07/16 03:19:32;;;;;;;27.95;15.30;;;18.80;67.60;;;;;;4973207;28;20019;-70
2021/07/16 03:21:57;;;;;;;22.45;12.50;;;18.80;66.80;;;;;;4960954;28;20027;-70
2021/07/16 03:24:23;;;;;;;25.80;14.07;;;18.70;66.20;;;;;;4960805;28;20034;-70
2021/07/16 03:26:49;;;;;;;23.15;14.27;;;18.70;66.70;;;;;;4961234;28;20027;-70
2021/07/16 03:29:15;;;;;;;35.05;17.38;;;18.70;67.10;;;;;;4961103;28;20090;-70
2021/07/16 03:31:41;;;;;;;31.92;16.42;;;18.70;70.00;;;;;;4961498;28;20035;-70
2021/07/16 03:34:07;;;;;;;33.88;16.35;;;18.60;68.90;;;;;;4960728;28;20509;-70
2021/07/16 03:36:33;;;;;;;33.75;17.00;;;18.60;68.60;;;;;;4960685;28;20339;-70
2021/07/16 03:38:59;;;;;;;37.35;17.70;;;18.60;68.60;;;;;;4959887;28;20027;-70
2021/07/16 03:41:25;;;;;;;33.60;18.10;;;18.50;69.10;;;;;;4960729;28;20035;-70
2021/07/16 03:43:51;;;;;;;31.75;17.55;;;18.50;69.30;;;;;;4960595;28;20363;-70
2021/07/16 03:46:17;;;;;;;39.65;19.40;;;18.50;69.90;;;;;;4960090;28;20027;-70
2021/07/16 03:48:43;;;;;;;37.05;19.38;;;18.40;70.00;;;;;;4959892;28;20051;-71
2021/07/16 03:51:09;;;;;;;35.25;18.15;;;18.30;70.20;;;;;;4959990;28;20034;-70
2021/07/16 03:53:35;;;;;;;35.33;17.70;;;18.30;70.20;;;;;;4959384;28;20019;-70
2021/07/16 03:56:01;;;;;;;39.70;18.75;;;18.20;69.30;;;;;;4960272;28;20110;-70
2021/07/16 03:58:27;;;;;;;43.17;19.58;;;18.20;70.30;;;;;;4960588;28;20027;-70
2021/07/16 04:00:52;;;;;;;33.90;17.77;;;18.20;71.00;;;;;;4959968;28;20102;-70
2021/07/16 04:03:21;;;;;;;41.08;20.58;;;18.10;70.70;;;;;;4960850;28;20078;-71
2021/07/16 04:05:46;;;;;;;41.15;20.27;;;18.10;71.60;;;;;;4959662;28;20027;-70
2021/07/16 04:08:16;;;;;;;37.08;19.27;;;18.00;71.00;;;;;;4958943;28;20093;-70
2021/07/16 04:10:42;;;;;;;38.20;20.95;;;18.00;70.70;;;;;;4969116;28;20026;-70
2021/07/16 04:13:11;;;;;;;40.33;21.38;;;17.90;70.90;;;;;;4963011;28;20034;-70
2021/07/16 04:15:38;;;;;;;41.65;20.95;;;17.90;72.00;;;;;;4965822;28;20042;-70
2021/07/16 04:18:06;;;;;;;40.25;21.05;;;17.90;71.90;;;;;;4962451;28;20019;-70
2021/07/16 04:20:33;;;;;;;41.92;21.77;;;17.90;72.30;;;;;;4959314;28;20086;-70
2021/07/16 04:23:00;;;;;;;40.70;20.13;;;17.90;72.20;;;;;;4958749;28;20027;-70
2021/07/16 04:25:26;;;;;;;40.20;20.27;;;17.80;71.30;;;;;;4959203;28;20098;-70
2021/07/16 04:27:55;;;;;;;37.95;20.27;;;17.70;71.00;;;;;;4960049;28;20131;-70
2021/07/16 04:30:22;;;;;;;37.25;20.13;;;17.70;71.70;;;;;;4959131;28;20053;-70
2021/07/16 04:32:50;;;;;;;40.60;21.15;;;17.70;72.30;;;;;;4958891;28;20097;-70
2021/07/16 04:35:16;;;;;;;40.65;20.30;;;17.70;72.00;;;;;;4959216;28;20118;-70
2021/07/16 04:37:43;;;;;;;38.30;20.85;;;17.70;72.30;;;;;;4958640;28;20369;-70
2021/07/16 04:40:12;;;;;;;46.30;21.60;;;17.70;71.70;;;;;;4959119;28;20054;-70
2021/07/16 04:42:38;;;;;;;44.10;20.55;;;17.70;72.40;;;;;;4959050;28;20445;-70
2021/07/16 04:45:04;;;;;;;38.30;19.40;;;17.70;72.50;;;;;;4959062;28;20082;-70
2021/07/16 04:47:30;;;;;;;35.25;18.20;;;17.60;71.80;;;;;;4972008;28;20106;-70
2021/07/16 04:49:56;;;;;;;35.65;18.08;;;17.60;70.70;;;;;;4958849;28;20073;-70
2021/07/16 04:52:22;;;;;;;32.35;18.38;;;17.60;70.20;;;;;;4977246;28;20029;-70
2021/07/16 04:54:48;;;;;;;39.13;19.02;;;17.70;70.00;;;;;;4978663;28;20399;-70
2021/07/16 04:57:14;;;;;;;40.35;20.20;;;17.70;69.90;;;;;;4958706;28;20155;-71
2021/07/16 04:59:40;;;;;;;39.60;20.08;;;17.70;70.00;;;;;;4959868;28;20035;-70
2021/07/16 05:02:06;;;;;;;37.92;20.20;;;17.80;69.70;;;;;;4959729;28;20023;-70
2021/07/16 05:04:33;;;;;;;45.55;22.52;;;17.80;69.30;;;;;;4959803;28;20051;-70
2021/07/16 05:06:59;;;;;;;45.42;23.02;;;17.80;70.20;;;;;;4965923;28;20027;-68
2021/07/16 05:09:25;;;;;;;49.53;24.15;;;17.90;70.90;;;;;;4959322;28;20170;-73
2021/07/16 05:11:52;;;;;;;53.92;25.38;;;17.90;71.80;;;;;;4970933;28;20027;-69
2021/07/16 05:14:18;;;;;;;49.53;24.17;;;17.90;72.80;;;;;;4959035;28;20399;-69
2021/07/16 05:16:44;;;;;;;53.22;26.92;;;18.00;72.80;;;;;;4965758;28;20031;-69
2021/07/16 05:19:11;;;;;;;49.92;25.27;;;18.00;74.10;;;;;;4958316;28;20536;-68
2021/07/16 05:21:37;;;;;;;48.28;23.95;;;18.00;73.70;;;;;;4958060;28;20027;-71
2021/07/16 05:24:03;;;;;;;47.38;23.50;;;18.00;72.90;;;;;;4956748;28;20031;-68
2021/07/16 05:26:29;;;;;;;52.60;24.52;;;18.00;72.80;;;;;;4958379;28;20028;-70
2021/07/16 05:28:56;;;;;;;60.88;27.90;;;18.00;73.50;;;;;;4958234;28;20031;-69
2021/07/16 05:31:22;;;;;;;56.95;26.27;;;18.00;74.00;;;;;;4958588;28;20034;-70
2021/07/16 05:33:48;;;;;;;49.50;23.33;;;18.00;74.20;;;;;;4958077;28;20031;-68
2021/07/16 05:36:14;;;;;;;44.67;24.52;;;18.00;73.90;;;;;;4958270;28;20023;-69
2021/07/16 05:38:40;;;;;;;50.22;24.92;;;18.00;73.70;;;;;;4956997;28;20023;-69
2021/07/16 05:41:07;;;;;;;52.13;24.88;;;18.10;73.80;;;;;;4959512;28;20023;-69
2021/07/16 05:43:34;;;;;;;51.55;25.10;;;18.10;73.40;;;;;;4958518;28;20457;-70
2021/07/16 05:46:02;;;;;;;45.83;22.45;;;18.20;73.70;;;;;;4971605;28;20026;-70
2021/07/16 05:48:31;;;;;;;49.13;23.85;;;18.20;73.50;;;;;;4978846;28;20035;-70
2021/07/16 05:50:58;;;;;;;49.53;24.73;;;18.20;74.50;;;;;;4959264;28;20081;-70
2021/07/16 05:53:24;;;;;;;48.83;25.10;;;18.20;74.00;;;;;;4958742;28;20035;-69
2021/07/16 05:55:50;;;;;;;53.25;26.83;;;18.30;74.00;;;;;;4959050;28;20019;-68
2021/07/16 05:58:16;;;;;;;51.50;25.48;;;18.30;75.70;;;;;;4958965;28;20110;-71
2021/07/16 06:00:42;;;;;;;51.30;25.92;;;18.30;75.70;;;;;;4962232;28;20471;-70
2021/07/16 06:03:08;;;;;;;45.95;23.38;;;18.40;76.00;;;;;;4972179;28;20098;-69
2021/07/16 06:05:35;;;;;;;45.03;25.25;;;18.40;74.60;;;;;;4969324;28;20043;-74
2021/07/16 06:08:02;;;;;;;49.47;25.60;;;18.50;75.50;;;;;;4958295;28;20051;-74
2021/07/16 06:10:29;;;;;;;46.70;22.95;;;18.50;76.50;;;;;;4963271;28;20019;-72
2021/07/16 06:12:55;;;;;;;55.38;31.45;;;18.50;76.00;;;;;;4974062;28;20035;-71
2021/07/16 06:15:21;;;;;;;60.05;35.15;;;18.50;76.20;;;;;;4977226;28;20722;-71
2021/07/16 06:17:47;;;;;;;55.45;31.05;;;18.50;75.90;;;;;;4963877;28;20027;-73
2021/07/16 06:20:14;;;;;;;48.30;26.90;;;18.50;76.10;;;;;;4965903;28;20037;-73
2021/07/16 06:22:41;;;;;;;42.13;24.75;;;18.60;76.80;;;;;;4976242;28;20438;-71
2021/07/16 06:25:08;;;;;;;40.75;22.08;;;18.60;75.60;;;;;;4958930;28;20031;-70
2021/07/16 06:27:34;;;;;;;40.30;23.50;;;18.70;75.10;;;;;;4958733;28;20031;-72
2021/07/16 06:30:00;;;;;;;44.70;22.58;;;18.70;75.00;;;;;;4957462;28;20027;-70
2021/07/16 06:32:26;;;;;;;43.47;23.67;;;18.80;75.00;;;;;;4969971;28;20035;-70
2021/07/16 06:34:52;;;;;;;40.95;21.40;;;18.80;74.50;;;;;;4971716;28;20375;-71
2021/07/16 06:37:18;;;;;;;49.30;27.55;;;18.90;74.40;;;;;;4977946;28;20046;-70
2021/07/16 06:39:44;;;;;;;45.25;24.45;;;18.90;74.20;;;;;;4977296;28;20027;-71
2021/07/16 06:42:09;;;;;;;43.25;24.33;;;19.00;73.80;;;;;;4962688;28;20023;-71
2021/07/16 06:44:35;;;;;;;41.42;23.35;;;19.10;74.00;;;;;;4958606;28;20059;-71
2021/07/16 06:47:01;;;;;;;40.75;23.15;;;19.20;74.00;;;;;;4986482;28;20031;-71
2021/07/16 06:49:27;;;;;;;37.28;20.58;;;19.30;74.00;;;;;;4969701;28;20486;-70
2021/07/16 06:51:54;;;;;;;39.63;21.95;;;19.30;73.80;;;;;;4961441;28;20031;-71
2021/07/16 06:54:20;;;;;;;37.03;21.25;;;19.30;73.50;;;;;;4961622;28;20054;-71
2021/07/16 06:56:46;;;;;;;34.80;21.40;;;19.40;73.40;;;;;;4975042;28;20027;-71
2021/07/16 06:59:12;;;;;;;37.45;21.77;;;19.50;73.80;;;;;;4971710;28;20031;-71
2021/07/16 07:01:39;;;;;;;30.80;18.63;;;19.60;74.00;;;;;;4961313;28;20114;-72
2021/07/16 07:04:05;;;;;;;36.20;20.35;;;19.80;74.70;;;;;;4961667;28;20876;-72
2021/07/16 07:06:31;;;;;;;33.88;17.65;;;20.10;75.60;;;;;;4961360;28;20027;-71
2021/07/16 07:08:57;;;;;;;29.95;16.60;;;20.40;76.30;;;;;;4961049;28;20147;-71
2021/07/16 07:11:23;;;;;;;29.05;16.88;;;20.80;77.10;;;;;;4973196;28;20062;-71
2021/07/16 07:13:49;;;;;;;34.88;16.45;;;21.20;78.30;;;;;;4961589;28;20023;-71
2021/07/16 07:16:16;;;;;;;24.25;13.82;;;21.60;78.80;;;;;;4969259;28;20474;-71
2021/07/16 07:18:44;;;;;;;20.90;11.68;;;21.90;78.80;;;;;;4961626;28;20035;-70
2021/07/16 07:21:12;;;;;;;18.20;11.48;;;22.30;78.00;;;;;;4961332;28;20027;-71
2021/07/16 07:23:39;;;;;;;21.58;11.68;;;22.70;78.40;;;;;;4968883;28;20035;-71
2021/07/16 07:26:05;;;;;;;24.75;13.13;;;23.10;75.30;;;;;;4980334;28;20030;-70
2021/07/16 07:28:31;;;;;;;18.67;9.50;;;23.50;76.10;;;;;;4971557;28;20019;-70
2021/07/16 07:30:57;;;;;;;15.13;6.57;;;23.90;75.90;;;;;;4960956;28;20055;-71
2021/07/16 07:33:23;;;;;;;9.88;6.20;;;24.30;73.20;;;;;;4961137;28;20062;-71
2021/07/16 07:35:49;;;;;;;13.68;6.60;;;24.70;72.60;;;;;;4974696;28;20434;-72
2021/07/16 07:38:18;;;;;;;13.43;6.35;;;25.00;70.90;;;;;;4970442;28;20380;-70
2021/07/16 07:40:44;;;;;;;11.00;6.28;;;25.20;69.50;;;;;;4975558;28;20509;-70
2021/07/16 07:43:10;;;;;;;9.93;6.05;;;25.50;69.10;;;;;;4975428;28;20027;-70
2021/07/16 07:45:36;;;;;;;12.73;6.45;;;25.50;68.30;;;;;;4964974;28;20110;-70
2021/07/16 07:48:01;;;;;;;11.45;6.10;;;25.50;67.50;;;;;;4969626;28;20134;-71
2021/07/16 07:50:27;;;;;;;10.68;5.45;;;25.70;68.60;;;;;;4960683;28;20027;-71
2021/07/16 07:52:53;;;;;;;11.88;5.40;;;26.00;67.80;;;;;;4960635;28;20043;-70
2021/07/16 07:55:23;;;;;;;11.25;6.03;;;26.40;69.90;;;;;;4960694;28;20023;-71
2021/07/16 07:57:51;;;;;;;26.92;16.67;;;26.70;69.70;;;;;;4961038;28;20028;-71
2021/07/16 08:00:20;;;;;;;22.40;12.77;;;27.10;68.50;;;;;;4960582;28;20046;-71
2021/07/16 08:02:46;;;;;;;13.00;6.03;;;27.50;68.40;;;;;;4960469;28;20031;-71
2021/07/16 08:05:13;;;;;;;9.13;5.00;;;27.80;64.30;;;;;;4973692;28;20457;-70
2021/07/16 08:07:40;;;;;;;10.68;4.50;;;28.00;64.40;;;;;;4968455;28;20042;-71
2021/07/16 08:10:08;;;;;;;10.73;4.82;;;28.30;63.40;;;;;;4970652;28;20027;-71
2021/07/16 08:12:34;;;;;;;10.38;4.43;;;28.60;64.30;;;;;;4961460;28;20102;-71
2021/07/16 08:15:01;;;;;;;10.32;4.20;;;28.90;63.90;;;;;;4960672;28;20036;-70
2021/07/16 08:17:27;;;;;;;9.27;4.70;;;29.10;61.40;;;;;;4961209;28;20455;-70
2021/07/16 08:19:53;;;;;;;10.98;5.22;;;29.20;62.10;;;;;;4971502;28;20196;-71
2021/07/16 08:22:18;;;;;;;9.45;4.53;;;29.30;61.40;;;;;;4963800;28;20023;-71
2021/07/16 08:24:44;;;;;;;9.80;4.45;;;29.50;61.60;;;;;;4962514;28;20095;-71
2021/07/16 08:27:10;;;;;;;8.13;4.38;;;29.80;62.30;;;;;;4959775;28;20046;-71
2021/07/16 08:29:36;;;;;;;10.20;4.65;;;30.00;59.60;;;;;;4960151;28;20430;-71
2021/07/16 08:32:02;;;;;;;11.88;4.63;;;30.10;58.70;;;;;;4972666;28;20023;-73
2021/07/16 08:34:28;;;;;;;8.43;4.22;;;30.20;56.90;;;;;;4960811;28;20038;-73
2021/07/16 08:36:54;;;;;;;9.98;4.85;;;30.20;56.90;;;;;;4959657;28;20028;-72
2021/07/16 08:39:20;;;;;;;8.55;4.43;;;30.20;56.90;;;;;;4959817;28;20115;-72
2021/07/16 08:41:46;;;;;;;9.75;4.25;;;30.10;55.10;;;;;;4974266;28;20025;-72
2021/07/16 08:44:13;;;;;;;8.98;4.72;;;29.90;53.20;;;;;;4959598;28;20110;-72
2021/07/16 08:46:44;;;;;;;10.88;4.63;;;29.50;53.00;;;;;;4959869;28;20426;-73
2021/07/16 08:49:11;;;;;;;12.55;4.72;;;29.10;53.60;;;;;;4959759;28;20038;-72
2021/07/16 08:51:38;;;;;;;10.15;4.30;;;29.00;54.30;;;;;;4959553;28;20023;-71
2021/07/16 08:54:04;;;;;;;8.90;4.10;;;29.20;54.40;;;;;;4959358;28;20035;-72
2021/07/16 08:56:36;;;;;;;11.93;5.30;;;29.50;54.10;;;;;;4971713;28;20026;-72
2021/07/16 08:59:08;;;;;;;12.75;5.05;;;30.10;56.60;;;;;;4978551;28;20081;-73
2021/07/16 09:01:35;;;;;;;10.50;4.78;;;30.50;54.60;;;;;;4978858;28;20029;-71
2021/07/16 09:04:03;;;;;;;9.63;4.43;;;30.90;56.00;;;;;;4978297;28;20549;-72
2021/07/16 09:06:51;;;;;;;12.73;4.65;;;31.30;55.90;;;;;;4978527;28;20408;-71
2021/07/16 09:09:22;;;;;;;10.82;5.03;;;31.90;54.80;;;;;;4976610;28;20141;-71
2021/07/16 09:11:54;;;;;;;11.30;4.88;;;32.20;53.70;;;;;;4973463;28;20031;-71
2021/07/16 09:14:27;;;;;;;12.30;5.00;;;32.50;54.00;;;;;;4959675;28;20043;-71
2021/07/16 09:16:56;;;;;;;6.45;4.43;;;32.80;54.30;;;;;;4967330;28;20482;-71
2021/07/16 09:19:50;;;;;;;9.73;4.78;;;33.20;54.10;;;;;;4959600;28;20023;-71
2021/07/16 09:22:21;;;;;;;8.85;4.38;;;33.60;52.10;;;;;;4957469;28;20486;-71
2021/07/16 09:24:54;;;;;;;8.27;4.32;;;33.80;51.40;;;;;;4959155;28;20031;-71
2021/07/16 09:27:40;;;;;;;10.20;4.88;;;33.90;50.50;;;;;;4959326;28;20031;-71
2021/07/16 09:30:14;;;;;;;11.10;4.40;;;34.10;48.70;;;;;;4959388;28;20031;-71
2021/07/16 09:32:46;;;;;;;12.43;4.68;;;34.40;52.00;;;;;;4959107;28;20023;-71
2021/07/16 09:35:18;;;;;;;8.98;4.45;;;34.70;53.50;;;;;;4962060;28;20031;-71
2021/07/16 09:37:51;;;;;;;11.95;4.95;;;35.10;51.80;;;;;;4971355;28;20027;-71
2021/07/16 09:40:25;;;;;;;8.57;4.28;;;35.40;51.40;;;;;;4968029;28;20482;-70
2021/07/16 09:42:59;;;;;;;8.77;4.30;;;35.70;51.50;;;;;;4970101;28;20094;-71
2021/07/16 09:45:25;;;;;;;10.98;4.30;;;36.00;52.30;;;;;;4958888;28;20027;-71
2021/07/16 09:47:51;;;;;;;8.40;4.55;;;36.30;47.70;;;;;;4964075;28;20027;-71
2021/07/16 09:50:20;;;;;;;17.10;8.40;;;36.50;49.50;;;;;;4971414;28;20070;-71
2021/07/16 09:52:46;;;;;;;12.82;6.80;;;36.60;49.20;;;;;;4958498;28;20075;-71
2021/07/16 09:55:20;;;;;;;9.32;5.15;;;36.90;48.00;;;;;;4958531;28;20027;-71
2021/07/16 09:57:49;;;;;;;13.80;5.28;;;37.10;50.20;;;;;;4968347;28;20026;-71
2021/07/16 10:00:22;;;;;;;8.93;4.07;;;37.40;50.00;;;;;;4977607;28;20113;-71
2021/07/16 10:02:56;;;;;;;11.35;3.90;;;37.40;50.20;;;;;;4978221;28;20077;-71
2021/07/16 10:05:23;;;;;;;10.00;4.05;;;37.50;47.80;;;;;;4981327;28;20161;-71
2021/07/16 10:07:50;;;;;;;7.85;4.05;;;37.60;46.30;;;;;;4963212;28;20015;-71
2021/07/16 10:10:18;;;;;;;9.65;4.00;;;37.80;46.10;;;;;;4964560;28;20038;-71
2021/07/16 10:12:45;;;;;;;8.70;4.10;;;37.90;45.60;;;;;;4965544;28;20027;-71
2021/07/16 10:15:20;;;;;;;10.27;5.30;;;38.20;46.50;;;;;;4960027;28;20028;-71
2021/07/16 10:17:46;;;;;;;11.77;6.30;;;38.30;41.90;;;;;;4964022;28;20035;-71
2021/07/16 10:20:15;;;;;;;9.18;4.65;;;38.50;44.50;;;;;;4959106;28;20032;-71
2021/07/16 10:22:43;;;;;;;13.98;4.63;;;38.70;45.20;;;;;;4957986;28;20032;-71
2021/07/16 10:25:10;;;;;;;14.85;4.85;;;38.80;44.30;;;;;;4960783;28;20490;-70
2021/07/16 10:27:40;;;;;;;9.10;4.80;;;39.00;46.10;;;;;;4961922;28;20019;-70
2021/07/16 10:30:18;;;;;;;7.60;4.03;;;39.30;45.80;;;;;;4962183;28;20134;-70
2021/07/16 10:32:54;;;;;;;7.78;4.25;;;39.60;46.50;;;;;;4962056;28;20160;-71
2021/07/16 10:35:27;;;;;;;11.20;3.92;;;40.00;46.50;;;;;;4980484;28;20026;-70
2021/07/16 10:37:59;;;;;;;8.73;3.95;;;40.30;45.10;;;;;;4961820;28;20019;-71
2021/07/16 10:40:44;;;;;;;8.32;4.00;;;40.60;44.60;;;;;;4974641;28;20026;-71
2021/07/16 10:43:29;;;;;;;27.63;24.23;;;40.70;42.70;;;;;;4961984;28;20479;-73
2021/07/16 10:45:57;;;;;;;11.43;4.88;;;40.80;40.70;;;;;;4962131;28;20058;-72
2021/07/16 10:48:36;;;;;;;11.30;3.90;;;40.80;39.20;;;;;;4961968;28;20058;-72
2021/07/16 10:51:03;;;;;;;6.97;3.40;;;40.80;42.40;;;;;;4962428;28;20027;-72
2021/07/16 10:53:29;;;;;;;7.28;3.33;;;40.90;42.00;;;;;;4964414;28;20038;-72
2021/07/16 10:55:55;;;;;;;8.00;3.83;;;41.00;42.20;;;;;;4971798;28;20035;-73
2021/07/16 10:58:23;;;;;;;7.63;3.28;;;41.10;43.20;;;;;;4962036;28;20027;-71
2021/07/16 11:00:51;;;;;;;8.05;3.30;;;41.10;42.40;;;;;;4976788;28;20129;-71
2021/07/16 11:03:19;;;;;;;9.40;3.75;;;41.10;40.90;;;;;;4962612;28;20028;-74
2021/07/16 11:05:45;;;;;;;6.88;3.22;;;41.10;42.40;;;;;;4980543;28;20027;-74
2021/07/16 11:08:39;;;;;;;6.68;3.63;;;41.00;42.50;;;;;;4963098;28;20062;-74
2021/07/16 11:11:18;;;;;;;7.15;3.60;;;41.00;41.90;;;;;;4974121;28;20049;-73
2021/07/16 11:13:50;;;;;;;9.32;3.67;;;40.90;43.50;;;;;;4961465;28;20031;-72
2021/07/16 11:16:24;;;;;;;7.03;4.03;;;40.90;42.30;;;;;;4969148;28;20425;-72
2021/07/16 11:18:57;;;;;;;8.73;4.60;;;40.90;41.80;;;;;;4961622;28;20091;-73
2021/07/16 11:21:40;;;;;;;8.18;3.83;;;40.90;43.00;;;;;;4961034;28;20397;-75
2021/07/16 11:24:07;;;;;;;7.20;4.05;;;41.00;41.50;;;;;;4961175;28;20074;-75
2021/07/16 11:26:45;;;;;;;7.00;4.10;;;41.00;42.00;;;;;;4960987;28;20026;-76
2021/07/16 11:29:11;;;;;;;8.82;4.60;;;41.10;43.60;;;;;;4961136;28;20031;-77
2021/07/16 11:31:37;;;;;;;8.45;3.60;;;41.20;43.60;;;;;;4961304;28;20023;-75
2021/07/16 11:34:05;;;;;;;9.40;3.80;;;41.30;42.30;;;;;;4960735;28;20019;-75
2021/07/16 11:36:31;;;;;;;10.02;3.90;;;41.40;42.60;;;;;;4972317;28;20019;-74
2021/07/16 11:38:57;;;;;;;7.55;3.70;;;41.40;41.30;;;;;;4965151;28;20027;-74
2021/07/16 11:41:30;;;;;;;7.53;3.83;;;41.30;41.30;;;;;;4961315;28;20527;-73
2021/07/16 11:43:59;;;;;;;7.90;3.38;;;41.30;40.90;;;;;;4975961;28;20023;-74
2021/07/16 11:46:29;;;;;;;7.05;3.70;;;41.00;38.10;;;;;;4980054;28;20027;-73
2021/07/16 11:48:55;;;;;;;7.73;3.70;;;40.70;38.00;;;;;;4961567;28;20039;-74
2021/07/16 11:51:28;;;;;;;6.75;3.55;;;40.30;39.00;;;;;;4959516;28;20106;-74
2021/07/16 11:53:54;;;;;;;8.45;3.72;;;40.00;40.00;;;;;;4959253;28;20031;-74
2021/07/16 11:56:20;;;;;;;12.38;4.10;;;39.70;39.70;;;;;;4960096;28;20020;-74
2021/07/16 11:58:52;;;;;;;5.85;3.63;;;39.40;38.40;;;;;;4977774;28;20047;-74
2021/07/16 12:01:18;;;;;;;7.15;3.42;;;39.10;38.60;;;;;;4966095;28;20019;-73
2021/07/16 12:03:43;;;;;;;8.43;3.70;;;38.80;39.80;;;;;;4960799;28;20019;-74
2021/07/16 12:06:09;;;;;;;7.80;3.95;;;38.60;41.50;;;;;;4972232;28;20093;-74
2021/07/16 12:08:38;;;;;;;7.40;3.60;;;38.40;41.70;;;;;;4959093;28;20055;-74
2021/07/16 12:11:08;;;;;;;10.68;4.22;;;38.20;41.00;;;;;;4973302;28;20031;-75
2021/07/16 12:13:36;;;;;;;6.63;3.30;;;37.80;39.60;;;;;;4960690;28;20133;-75
2021/07/16 12:16:13;;;;;;;9.82;3.60;;;37.30;37.40;;;;;;4968027;28;20110;-75
2021/07/16 12:18:40;;;;;;;8.63;4.28;;;36.90;37.30;;;;;;4960135;28;20027;-75
2021/07/16 12:21:08;;;;;;;8.43;3.70;;;36.40;39.50;;;;;;4960094;28;20031;-75
2021/07/16 12:23:35;;;;;;;5.97;3.67;;;36.00;41.70;;;;;;4960493;28;20027;-75
2021/07/16 12:26:20;;;;;;;7.28;3.90;;;35.60;40.90;;;;;;4959829;28;20035;-74
2021/07/16 12:29:01;;;;;;;7.75;3.97;;;35.10;40.60;;;;;;4971615;28;20050;-75
2021/07/16 12:31:29;;;;;;;8.23;4.90;;;34.70;41.70;;;;;;4960021;28;20027;-75
2021/07/16 12:33:55;;;;;;;8.32;4.05;;;34.40;43.10;;;;;;4964073;28;20027;-75
2021/07/16 12:36:25;;;;;;;6.88;3.65;;;34.00;42.30;;;;;;4970760;28;20152;-75
2021/07/16 12:38:51;;;;;;;10.90;4.40;;;33.70;42.00;;;;;;4958770;28;20078;-74
2021/07/16 12:41:21;;;;;;;7.03;4.32;;;33.40;43.10;;;;;;4958569;28;20027;-74
2021/07/16 12:43:47;;;;;;;8.23;4.65;;;33.10;42.90;;;;;;4958682;28;20098;-75